sensor_id;sensor_type;location;lat;lon;timestamp;P1;durP1;ratioP1;P2;durP2;ratioP2
56927;SDS011;60850;52.502;13.426;2022-12-11T00:02:12;19.20;;;8.25;;
56927;SDS011;60850;52.502;13.426;2022-12-11T00:04:39;19.77;;;8.52;;
56927;SDS011;60850;52.502;13.426;2022-12-11T00:07:06;20.33;;;8.98;;
56927;SDS011;60850;52.502;13.426;2022-12-11T00:09:33;17.70;;;8.52;;
56927;SDS011;60850;52.502;13.426;2022-12-11T00:12:02;16.83;;;8.30;;
56927;SDS011;60850;52.502;13.426;2022-12-11T00:14:29;20.70;;;9.18;;
56927;SDS011;60850;52.502;13.426;2022-12-11T00:16:57;20.08;;;9.20;;
56927;SDS011;60850;52.502;13.426;2022-12-11T00:19:24;18.45;;;8.57;;
56927;SDS011;60850;52.502;13.426;2022-12-11T00:21:51;19.52;;;8.95;;
56927;SDS011;60850;52.502;13.426;2022-12-11T00:24:18;19.73;;;8.18;;
56927;SDS011;60850;52.502;13.426;2022-12-11T00:26:46;17.98;;;8.57;;
56927;SDS011;60850;52.502;13.426;2022-12-11T00:29:14;19.38;;;8.55;;
56927;SDS011;60850;52.502;13.426;2022-12-11T00:31:41;18.73;;;8.77;;
56927;SDS011;60850;52.502;13.426;2022-12-11T00:34:08;17.80;;;8.32;;
56927;SDS011;60850;52.502;13.426;2022-12-11T00:36:36;17.77;;;8.18;;
56927;SDS011;60850;52.502;13.426;2022-12-11T00:39:04;21.60;;;8.82;;
56927;SDS011;60850;52.502;13.426;2022-12-11T00:41:32;17.13;;;8.10;;
56927;SDS011;60850;52.502;13.426;2022-12-11T00:43:59;15.55;;;8.07;;
56927;SDS011;60850;52.502;13.426;2022-12-11T00:46:28;18.55;;;9.02;;
56927;SDS011;60850;52.502;13.426;2022-12-11T00:48:55;17.88;;;8.07;;
56927;SDS011;60850;52.502;13.426;2022-12-11T00:51:22;19.25;;;9.07;;
56927;SDS011;60850;52.502;13.426;2022-12-11T00:53:50;17.27;;;8.45;;
56927;SDS011;60850;52.502;13.426;2022-12-11T00:56:18;15.25;;;7.85;;
56927;SDS011;60850;52.502;13.426;2022-12-11T00:58:47;17.25;;;8.43;;
56927;SDS011;60850;52.502;13.426;2022-12-11T01:01:16;20.13;;;8.48;;
56927;SDS011;60850;52.502;13.426;2022-12-11T01:03:47;20.40;;;8.35;;
56927;SDS011;60850;52.502;13.426;2022-12-11T01:06:15;15.27;;;7.45;;
56927;SDS011;60850;52.502;13.426;2022-12-11T01:08:44;18.15;;;8.77;;
56927;SDS011;60850;52.502;13.426;2022-12-11T01:11:12;18.63;;;8.13;;
56927;SDS011;60850;52.502;13.426;2022-12-11T01:13:41;17.02;;;7.28;;
56927;SDS011;60850;52.502;13.426;2022-12-11T01:16:10;19.67;;;8.77;;
56927;SDS011;60850;52.502;13.426;2022-12-11T01:18:38;19.88;;;8.77;;
56927;SDS011;60850;52.502;13.426;2022-12-11T01:21:07;19.88;;;8.80;;
56927;SDS011;60850;52.502;13.426;2022-12-11T01:23:36;18.95;;;8.18;;
56927;SDS011;60850;52.502;13.426;2022-12-11T01:26:05;18.20;;;8.23;;
56927;SDS011;60850;52.502;13.426;2022-12-11T01:28:33;16.45;;;7.65;;
56927;SDS011;60850;52.502;13.426;2022-12-11T01:31:01;18.98;;;8.65;;
56927;SDS011;60850;52.502;13.426;2022-12-11T01:33:28;14.80;;;7.68;;
56927;SDS011;60850;52.502;13.426;2022-12-11T01:35:56;20.17;;;8.98;;
56927;SDS011;60850;52.502;13.426;2022-12-11T01:38:25;20.48;;;8.57;;
56927;SDS011;60850;52.502;13.426;2022-12-11T01:40:52;16.25;;;8.73;;
56927;SDS011;60850;52.502;13.426;2022-12-11T01:43:19;19.50;;;9.30;;
56927;SDS011;60850;52.502;13.426;2022-12-11T01:45:47;16.35;;;8.45;;
56927;SDS011;60850;52.502;13.426;2022-12-11T01:48:15;18.67;;;8.30;;
56927;SDS011;60850;52.502;13.426;2022-12-11T01:50:47;18.77;;;8.77;;
56927;SDS011;60850;52.502;13.426;2022-12-11T01:53:17;17.52;;;8.55;;
56927;SDS011;60850;52.502;13.426;2022-12-11T01:55:48;19.10;;;7.47;;
56927;SDS011;60850;52.502;13.426;2022-12-11T01:58:18;17.25;;;8.20;;
56927;SDS011;60850;52.502;13.426;2022-12-11T02:00:48;19.25;;;8.80;;
56927;SDS011;60850;52.502;13.426;2022-12-11T02:03:15;18.73;;;8.80;;
56927;SDS011;60850;52.502;13.426;2022-12-11T02:05:42;18.42;;;8.73;;
56927;SDS011;60850;52.502;13.426;2022-12-11T02:08:09;19.83;;;8.55;;
56927;SDS011;60850;52.502;13.426;2022-12-11T02:10:42;18.20;;;8.65;;
56927;SDS011;60850;52.502;13.426;2022-12-11T02:13:20;16.33;;;7.53;;
56927;SDS011;60850;52.502;13.426;2022-12-11T02:15:55;18.20;;;8.80;;
56927;SDS011;60850;52.502;13.426;2022-12-11T02:18:28;20.50;;;9.80;;
56927;SDS011;60850;52.502;13.426;2022-12-11T02:21:02;21.33;;;9.88;;
56927;SDS011;60850;52.502;13.426;2022-12-11T02:26:28;20.27;;;8.55;;
56927;SDS011;60850;52.502;13.426;2022-12-11T02:29:10;19.50;;;8.77;;
56927;SDS011;60850;52.502;13.426;2022-12-11T02:31:41;20.65;;;8.77;;
56927;SDS011;60850;52.502;13.426;2022-12-11T02:34:15;16.35;;;8.05;;
56927;SDS011;60850;52.502;13.426;2022-12-11T02:36:49;20.02;;;9.05;;
56927;SDS011;60850;52.502;13.426;2022-12-11T02:39:18;18.20;;;9.48;;
56927;SDS011;60850;52.502;13.426;2022-12-11T02:41:48;22.75;;;9.07;;
56927;SDS011;60850;52.502;13.426;2022-12-11T02:44:18;24.15;;;10.30;;
56927;SDS011;60850;52.502;13.426;2022-12-11T02:46:48;21.00;;;9.02;;
56927;SDS011;60850;52.502;13.426;2022-12-11T02:49:17;19.33;;;8.27;;
56927;SDS011;60850;52.502;13.426;2022-12-11T02:51:46;21.83;;;9.50;;
56927;SDS011;60850;52.502;13.426;2022-12-11T02:54:15;18.60;;;8.60;;
56927;SDS011;60850;52.502;13.426;2022-12-11T02:56:47;23.10;;;9.65;;
56927;SDS011;60850;52.502;13.426;2022-12-11T02:59:22;22.87;;;9.13;;
56927;SDS011;60850;52.502;13.426;2022-12-11T03:01:54;20.10;;;8.82;;
56927;SDS011;60850;52.502;13.426;2022-12-11T03:04:21;28.05;;;9.55;;
56927;SDS011;60850;52.502;13.426;2022-12-11T03:06:50;23.40;;;10.00;;
56927;SDS011;60850;52.502;13.426;2022-12-11T03:09:20;24.40;;;10.57;;
56927;SDS011;60850;52.502;13.426;2022-12-11T03:11:47;22.27;;;9.57;;
56927;SDS011;60850;52.502;13.426;2022-12-11T03:14:14;20.52;;;8.75;;
56927;SDS011;60850;52.502;13.426;2022-12-11T03:16:45;21.75;;;9.15;;
56927;SDS011;60850;52.502;13.426;2022-12-11T03:19:20;19.27;;;8.88;;
56927;SDS011;60850;52.502;13.426;2022-12-11T03:21:54;23.85;;;9.30;;
56927;SDS011;60850;52.502;13.426;2022-12-11T03:24:29;19.48;;;9.10;;
56927;SDS011;60850;52.502;13.426;2022-12-11T03:27:05;19.33;;;8.35;;
56927;SDS011;60850;52.502;13.426;2022-12-11T03:29:39;23.58;;;9.18;;
56927;SDS011;60850;52.502;13.426;2022-12-11T03:32:16;20.25;;;8.30;;
56927;SDS011;60850;52.502;13.426;2022-12-11T03:34:49;22.15;;;9.50;;
56927;SDS011;60850;52.502;13.426;2022-12-11T03:37:22;22.42;;;9.13;;
56927;SDS011;60850;52.502;13.426;2022-12-11T03:39:55;19.27;;;8.85;;
56927;SDS011;60850;52.502;13.426;2022-12-11T03:42:27;19.67;;;8.77;;
56927;SDS011;60850;52.502;13.426;2022-12-11T03:44:55;17.70;;;7.68;;
56927;SDS011;60850;52.502;13.426;2022-12-11T03:47:26;20.55;;;9.02;;
56927;SDS011;60850;52.502;13.426;2022-12-11T03:49:55;19.92;;;8.65;;
56927;SDS011;60850;52.502;13.426;2022-12-11T03:52:24;18.58;;;8.88;;
56927;SDS011;60850;52.502;13.426;2022-12-11T03:54:52;21.35;;;9.35;;
56927;SDS011;60850;52.502;13.426;2022-12-11T03:57:23;22.17;;;8.73;;
56927;SDS011;60850;52.502;13.426;2022-12-11T03:59:54;19.50;;;8.98;;
56927;SDS011;60850;52.502;13.426;2022-12-11T04:02:22;22.45;;;8.65;;
56927;SDS011;60850;52.502;13.426;2022-12-11T04:04:50;19.52;;;8.85;;
56927;SDS011;60850;52.502;13.426;2022-12-11T04:07:18;18.30;;;8.77;;
56927;SDS011;60850;52.502;13.426;2022-12-11T04:09:45;25.25;;;8.73;;
56927;SDS011;60850;52.502;13.426;2022-12-11T04:12:12;22.48;;;9.65;;
56927;SDS011;60850;52.502;13.426;2022-12-11T04:14:39;19.67;;;8.88;;
56927;SDS011;60850;52.502;13.426;2022-12-11T04:17:24;19.85;;;8.82;;
56927;SDS011;60850;52.502;13.426;2022-12-11T04:20:09;18.58;;;8.35;;
56927;SDS011;60850;52.502;13.426;2022-12-11T04:22:54;19.42;;;8.20;;
56927;SDS011;60850;52.502;13.426;2022-12-11T04:25:38;20.85;;;9.05;;
56927;SDS011;60850;52.502;13.426;2022-12-11T04:28:05;16.42;;;8.02;;
56927;SDS011;60850;52.502;13.426;2022-12-11T04:30:32;19.95;;;9.13;;
56927;SDS011;60850;52.502;13.426;2022-12-11T04:32:59;16.20;;;8.10;;
56927;SDS011;60850;52.502;13.426;2022-12-11T04:37:55;19.50;;;9.30;;
56927;SDS011;60850;52.502;13.426;2022-12-11T04:40:23;19.70;;;8.73;;
56927;SDS011;60850;52.502;13.426;2022-12-11T04:42:50;17.95;;;8.45;;
56927;SDS011;60850;52.502;13.426;2022-12-11T04:45:17;22.77;;;9.05;;
56927;SDS011;60850;52.502;13.426;2022-12-11T04:47:44;20.73;;;9.00;;
56927;SDS011;60850;52.502;13.426;2022-12-11T04:50:11;19.50;;;8.77;;
56927;SDS011;60850;52.502;13.426;2022-12-11T04:52:39;22.75;;;10.80;;
56927;SDS011;60850;52.502;13.426;2022-12-11T04:55:09;21.48;;;9.38;;
56927;SDS011;60850;52.502;13.426;2022-12-11T04:57:36;19.00;;;9.07;;
56927;SDS011;60850;52.502;13.426;2022-12-11T05:00:05;20.50;;;9.20;;
56927;SDS011;60850;52.502;13.426;2022-12-11T05:02:35;20.73;;;9.40;;
56927;SDS011;60850;52.502;13.426;2022-12-11T05:05:04;19.23;;;8.45;;
56927;SDS011;60850;52.502;13.426;2022-12-11T05:07:33;21.48;;;8.95;;
56927;SDS011;60850;52.502;13.426;2022-12-11T05:10:02;21.65;;;9.73;;
56927;SDS011;60850;52.502;13.426;2022-12-11T05:12:31;20.75;;;9.95;;
56927;SDS011;60850;52.502;13.426;2022-12-11T05:14:58;20.77;;;9.13;;
56927;SDS011;60850;52.502;13.426;2022-12-11T05:17:25;20.30;;;8.70;;
56927;SDS011;60850;52.502;13.426;2022-12-11T05:19:52;21.63;;;9.23;;
56927;SDS011;60850;52.502;13.426;2022-12-11T05:22:19;23.98;;;9.90;;
56927;SDS011;60850;52.502;13.426;2022-12-11T05:24:47;19.67;;;9.80;;
56927;SDS011;60850;52.502;13.426;2022-12-11T05:27:13;20.50;;;9.80;;
56927;SDS011;60850;52.502;13.426;2022-12-11T05:29:42;21.35;;;10.27;;
56927;SDS011;60850;52.502;13.426;2022-12-11T05:32:09;20.88;;;10.57;;
56927;SDS011;60850;52.502;13.426;2022-12-11T05:34:36;19.75;;;8.65;;
56927;SDS011;60850;52.502;13.426;2022-12-11T05:37:03;21.20;;;9.38;;
56927;SDS011;60850;52.502;13.426;2022-12-11T05:39:30;21.80;;;9.57;;
56927;SDS011;60850;52.502;13.426;2022-12-11T05:41:57;21.08;;;9.07;;
56927;SDS011;60850;52.502;13.426;2022-12-11T05:44:25;21.85;;;9.52;;
56927;SDS011;60850;52.502;13.426;2022-12-11T05:46:53;21.75;;;9.75;;
56927;SDS011;60850;52.502;13.426;2022-12-11T05:49:20;21.75;;;9.23;;
56927;SDS011;60850;52.502;13.426;2022-12-11T05:51:47;19.92;;;9.52;;
56927;SDS011;60850;52.502;13.426;2022-12-11T05:54:14;19.90;;;9.00;;
56927;SDS011;60850;52.502;13.426;2022-12-11T05:56:41;26.02;;;10.60;;
56927;SDS011;60850;52.502;13.426;2022-12-11T05:59:09;21.30;;;9.82;;
56927;SDS011;60850;52.502;13.426;2022-12-11T06:01:36;24.98;;;10.40;;
56927;SDS011;60850;52.502;13.426;2022-12-11T06:04:07;25.02;;;10.20;;
56927;SDS011;60850;52.502;13.426;2022-12-11T06:06:35;24.02;;;9.88;;
56927;SDS011;60850;52.502;13.426;2022-12-11T06:09:04;20.70;;;9.18;;
56927;SDS011;60850;52.502;13.426;2022-12-11T06:11:32;18.25;;;8.75;;
56927;SDS011;60850;52.502;13.426;2022-12-11T06:14:00;20.38;;;9.20;;
56927;SDS011;60850;52.502;13.426;2022-12-11T06:16:28;19.33;;;9.20;;
56927;SDS011;60850;52.502;13.426;2022-12-11T06:18:55;22.27;;;9.13;;
56927;SDS011;60850;52.502;13.426;2022-12-11T06:21:24;24.77;;;9.68;;
56927;SDS011;60850;52.502;13.426;2022-12-11T06:23:53;25.67;;;9.75;;
56927;SDS011;60850;52.502;13.426;2022-12-11T06:26:22;18.63;;;8.75;;
56927;SDS011;60850;52.502;13.426;2022-12-11T06:28:50;20.67;;;8.63;;
56927;SDS011;60850;52.502;13.426;2022-12-11T06:31:17;22.42;;;9.43;;
56927;SDS011;60850;52.502;13.426;2022-12-11T06:33:45;21.77;;;9.25;;
56927;SDS011;60850;52.502;13.426;2022-12-11T06:36:13;21.27;;;9.57;;
56927;SDS011;60850;52.502;13.426;2022-12-11T06:38:43;18.75;;;8.25;;
56927;SDS011;60850;52.502;13.426;2022-12-11T06:41:10;22.23;;;9.13;;
56927;SDS011;60850;52.502;13.426;2022-12-11T06:43:38;18.88;;;8.60;;
56927;SDS011;60850;52.502;13.426;2022-12-11T06:46:07;23.42;;;9.38;;
56927;SDS011;60850;52.502;13.426;2022-12-11T06:48:37;18.00;;;8.23;;
56927;SDS011;60850;52.502;13.426;2022-12-11T06:51:06;17.92;;;8.20;;
56927;SDS011;60850;52.502;13.426;2022-12-11T06:53:34;18.67;;;7.88;;
56927;SDS011;60850;52.502;13.426;2022-12-11T06:56:04;15.70;;;8.00;;
56927;SDS011;60850;52.502;13.426;2022-12-11T06:58:32;16.23;;;7.72;;
56927;SDS011;60850;52.502;13.426;2022-12-11T07:01:00;17.60;;;7.90;;
56927;SDS011;60850;52.502;13.426;2022-12-11T07:03:27;16.77;;;7.93;;
56927;SDS011;60850;52.502;13.426;2022-12-11T07:05:58;17.40;;;7.57;;
56927;SDS011;60850;52.502;13.426;2022-12-11T07:08:26;16.27;;;8.05;;
56927;SDS011;60850;52.502;13.426;2022-12-11T07:10:53;17.63;;;7.18;;
56927;SDS011;60850;52.502;13.426;2022-12-11T07:13:21;11.80;;;6.78;;
56927;SDS011;60850;52.502;13.426;2022-12-11T07:15:48;16.15;;;6.82;;
56927;SDS011;60850;52.502;13.426;2022-12-11T07:18:15;13.50;;;6.30;;
56927;SDS011;60850;52.502;13.426;2022-12-11T07:20:42;17.45;;;7.50;;
56927;SDS011;60850;52.502;13.426;2022-12-11T07:23:10;12.95;;;6.22;;
56927;SDS011;60850;52.502;13.426;2022-12-11T07:25:37;16.15;;;7.32;;
56927;SDS011;60850;52.502;13.426;2022-12-11T07:28:04;13.82;;;6.88;;
56927;SDS011;60850;52.502;13.426;2022-12-11T07:30:32;15.43;;;6.85;;
56927;SDS011;60850;52.502;13.426;2022-12-11T07:33:00;16.35;;;7.50;;
56927;SDS011;60850;52.502;13.426;2022-12-11T07:35:26;10.55;;;5.20;;
56927;SDS011;60850;52.502;13.426;2022-12-11T07:37:54;14.95;;;5.93;;
56927;SDS011;60850;52.502;13.426;2022-12-11T07:40:20;12.68;;;6.18;;
56927;SDS011;60850;52.502;13.426;2022-12-11T07:42:48;15.48;;;6.82;;
56927;SDS011;60850;52.502;13.426;2022-12-11T07:45:15;18.55;;;7.93;;
56927;SDS011;60850;52.502;13.426;2022-12-11T07:47:43;17.80;;;7.40;;
56927;SDS011;60850;52.502;13.426;2022-12-11T07:50:10;14.73;;;7.38;;
56927;SDS011;60850;52.502;13.426;2022-12-11T07:52:37;16.75;;;6.43;;
56927;SDS011;60850;52.502;13.426;2022-12-11T07:55:04;15.55;;;6.60;;
56927;SDS011;60850;52.502;13.426;2022-12-11T07:57:32;14.55;;;6.93;;
56927;SDS011;60850;52.502;13.426;2022-12-11T07:59:59;20.65;;;7.53;;
56927;SDS011;60850;52.502;13.426;2022-12-11T08:02:26;16.23;;;7.55;;
56927;SDS011;60850;52.502;13.426;2022-12-11T08:04:54;14.18;;;7.05;;
56927;SDS011;60850;52.502;13.426;2022-12-11T08:07:21;14.98;;;6.90;;
56927;SDS011;60850;52.502;13.426;2022-12-11T08:09:48;16.67;;;7.20;;
56927;SDS011;60850;52.502;13.426;2022-12-11T08:12:15;16.92;;;6.95;;
56927;SDS011;60850;52.502;13.426;2022-12-11T08:14:42;15.25;;;6.93;;
56927;SDS011;60850;52.502;13.426;2022-12-11T08:17:09;15.07;;;6.70;;
56927;SDS011;60850;52.502;13.426;2022-12-11T08:19:36;15.13;;;7.00;;
56927;SDS011;60850;52.502;13.426;2022-12-11T08:22:05;18.42;;;7.10;;
56927;SDS011;60850;52.502;13.426;2022-12-11T08:24:32;13.80;;;6.65;;
56927;SDS011;60850;52.502;13.426;2022-12-11T08:26:59;15.07;;;7.25;;
56927;SDS011;60850;52.502;13.426;2022-12-11T08:29:26;19.42;;;6.78;;
56927;SDS011;60850;52.502;13.426;2022-12-11T08:31:53;15.65;;;5.95;;
56927;SDS011;60850;52.502;13.426;2022-12-11T08:34:20;12.90;;;6.07;;
56927;SDS011;60850;52.502;13.426;2022-12-11T08:36:47;15.27;;;6.53;;
56927;SDS011;60850;52.502;13.426;2022-12-11T08:39:15;14.88;;;6.25;;
56927;SDS011;60850;52.502;13.426;2022-12-11T08:41:43;14.50;;;6.72;;
56927;SDS011;60850;52.502;13.426;2022-12-11T08:44:10;16.48;;;7.10;;
56927;SDS011;60850;52.502;13.426;2022-12-11T08:46:38;17.73;;;7.43;;
56927;SDS011;60850;52.502;13.426;2022-12-11T08:49:05;14.50;;;6.43;;
56927;SDS011;60850;52.502;13.426;2022-12-11T08:51:32;15.27;;;7.35;;
56927;SDS011;60850;52.502;13.426;2022-12-11T08:54:00;14.57;;;6.47;;
56927;SDS011;60850;52.502;13.426;2022-12-11T08:56:28;15.77;;;7.60;;
56927;SDS011;60850;52.502;13.426;2022-12-11T08:58:58;17.00;;;6.93;;
56927;SDS011;60850;52.502;13.426;2022-12-11T09:01:25;16.70;;;6.97;;
56927;SDS011;60850;52.502;13.426;2022-12-11T09:03:53;16.08;;;7.82;;
56927;SDS011;60850;52.502;13.426;2022-12-11T09:06:23;14.02;;;6.78;;
56927;SDS011;60850;52.502;13.426;2022-12-11T09:08:52;13.65;;;6.07;;
56927;SDS011;60850;52.502;13.426;2022-12-11T09:11:21;17.23;;;7.25;;
56927;SDS011;60850;52.502;13.426;2022-12-11T09:13:51;19.58;;;7.30;;
56927;SDS011;60850;52.502;13.426;2022-12-11T09:16:22;13.25;;;6.32;;
56927;SDS011;60850;52.502;13.426;2022-12-11T09:18:51;16.45;;;7.10;;
56927;SDS011;60850;52.502;13.426;2022-12-11T09:21:20;17.98;;;7.15;;
56927;SDS011;60850;52.502;13.426;2022-12-11T09:23:49;15.40;;;6.80;;
56927;SDS011;60850;52.502;13.426;2022-12-11T09:26:19;19.20;;;7.22;;
56927;SDS011;60850;52.502;13.426;2022-12-11T09:28:46;16.05;;;7.82;;
56927;SDS011;60850;52.502;13.426;2022-12-11T09:31:18;16.75;;;6.80;;
56927;SDS011;60850;52.502;13.426;2022-12-11T09:33:47;14.60;;;6.43;;
56927;SDS011;60850;52.502;13.426;2022-12-11T09:36:16;13.18;;;6.60;;
56927;SDS011;60850;52.502;13.426;2022-12-11T09:38:44;15.70;;;7.18;;
56927;SDS011;60850;52.502;13.426;2022-12-11T09:41:17;13.13;;;6.93;;
56927;SDS011;60850;52.502;13.426;2022-12-11T09:43:57;19.60;;;6.70;;
56927;SDS011;60850;52.502;13.426;2022-12-11T09:46:29;16.23;;;7.07;;
56927;SDS011;60850;52.502;13.426;2022-12-11T09:48:58;12.88;;;5.85;;
56927;SDS011;60850;52.502;13.426;2022-12-11T09:51:26;14.52;;;6.88;;
56927;SDS011;60850;52.502;13.426;2022-12-11T09:54:00;13.95;;;6.70;;
56927;SDS011;60850;52.502;13.426;2022-12-11T09:56:31;15.10;;;6.40;;
56927;SDS011;60850;52.502;13.426;2022-12-11T09:59:01;13.98;;;6.80;;
56927;SDS011;60850;52.502;13.426;2022-12-11T10:01:42;15.93;;;7.78;;
56927;SDS011;60850;52.502;13.426;2022-12-11T10:04:17;15.02;;;6.10;;
56927;SDS011;60850;52.502;13.426;2022-12-11T10:06:57;13.50;;;6.10;;
56927;SDS011;60850;52.502;13.426;2022-12-11T10:09:38;14.68;;;6.93;;
56927;SDS011;60850;52.502;13.426;2022-12-11T10:12:15;15.75;;;6.38;;
56927;SDS011;60850;52.502;13.426;2022-12-11T10:14:57;12.57;;;6.20;;
56927;SDS011;60850;52.502;13.426;2022-12-11T10:17:39;19.60;;;8.15;;
56927;SDS011;60850;52.502;13.426;2022-12-11T10:20:13;16.15;;;6.82;;
56927;SDS011;60850;52.502;13.426;2022-12-11T10:22:46;14.10;;;6.38;;
56927;SDS011;60850;52.502;13.426;2022-12-11T10:25:17;14.05;;;6.75;;
56927;SDS011;60850;52.502;13.426;2022-12-11T10:27:46;16.00;;;6.60;;
56927;SDS011;60850;52.502;13.426;2022-12-11T10:30:15;14.13;;;6.70;;
56927;SDS011;60850;52.502;13.426;2022-12-11T10:32:49;14.63;;;6.45;;
56927;SDS011;60850;52.502;13.426;2022-12-11T10:35:30;16.65;;;5.90;;
56927;SDS011;60850;52.502;13.426;2022-12-11T10:38:05;15.07;;;6.65;;
56927;SDS011;60850;52.502;13.426;2022-12-11T10:40:39;15.20;;;6.88;;
56927;SDS011;60850;52.502;13.426;2022-12-11T10:43:10;15.07;;;6.60;;
56927;SDS011;60850;52.502;13.426;2022-12-11T10:45:38;13.95;;;6.60;;
56927;SDS011;60850;52.502;13.426;2022-12-11T10:48:08;15.90;;;6.53;;
56927;SDS011;60850;52.502;13.426;2022-12-11T10:50:37;16.40;;;7.13;;
56927;SDS011;60850;52.502;13.426;2022-12-11T10:53:05;15.93;;;6.47;;
56927;SDS011;60850;52.502;13.426;2022-12-11T10:55:46;16.58;;;7.32;;
56927;SDS011;60850;52.502;13.426;2022-12-11T10:58:15;14.43;;;6.25;;
56927;SDS011;60850;52.502;13.426;2022-12-11T11:00:45;15.45;;;6.35;;
56927;SDS011;60850;52.502;13.426;2022-12-11T11:03:27;16.05;;;6.97;;
56927;SDS011;60850;52.502;13.426;2022-12-11T11:06:01;12.75;;;6.03;;
56927;SDS011;60850;52.502;13.426;2022-12-11T11:08:36;13.45;;;6.18;;
56927;SDS011;60850;52.502;13.426;2022-12-11T11:11:05;12.20;;;6.10;;
56927;SDS011;60850;52.502;13.426;2022-12-11T11:13:45;14.00;;;6.20;;
56927;SDS011;60850;52.502;13.426;2022-12-11T11:16:13;20.50;;;7.28;;
56927;SDS011;60850;52.502;13.426;2022-12-11T11:18:49;17.15;;;7.00;;
56927;SDS011;60850;52.502;13.426;2022-12-11T11:21:19;13.75;;;6.40;;
56927;SDS011;60850;52.502;13.426;2022-12-11T11:23:47;13.55;;;6.70;;
56927;SDS011;60850;52.502;13.426;2022-12-11T11:26:17;14.60;;;6.80;;
56927;SDS011;60850;52.502;13.426;2022-12-11T11:28:46;14.13;;;6.65;;
56927;SDS011;60850;52.502;13.426;2022-12-11T11:31:15;14.73;;;7.30;;
56927;SDS011;60850;52.502;13.426;2022-12-11T11:33:45;15.07;;;7.07;;
56927;SDS011;60850;52.502;13.426;2022-12-11T11:36:21;14.38;;;6.40;;
56927;SDS011;60850;52.502;13.426;2022-12-11T11:38:58;17.38;;;7.13;;
56927;SDS011;60850;52.502;13.426;2022-12-11T11:41:37;16.92;;;8.15;;
56927;SDS011;60850;52.502;13.426;2022-12-11T11:44:12;17.80;;;7.03;;
56927;SDS011;60850;52.502;13.426;2022-12-11T11:46:42;18.60;;;7.97;;
56927;SDS011;60850;52.502;13.426;2022-12-11T11:49:17;17.77;;;8.20;;
56927;SDS011;60850;52.502;13.426;2022-12-11T11:51:50;18.30;;;8.35;;
56927;SDS011;60850;52.502;13.426;2022-12-11T11:54:27;20.25;;;7.68;;
56927;SDS011;60850;52.502;13.426;2022-12-11T11:56:59;19.52;;;8.13;;
56927;SDS011;60850;52.502;13.426;2022-12-11T11:59:38;18.27;;;8.02;;
56927;SDS011;60850;52.502;13.426;2022-12-11T12:02:12;19.08;;;7.63;;
56927;SDS011;60850;52.502;13.426;2022-12-11T12:04:42;21.85;;;8.55;;
56927;SDS011;60850;52.502;13.426;2022-12-11T12:07:15;17.88;;;7.60;;
56927;SDS011;60850;52.502;13.426;2022-12-11T12:09:56;18.73;;;7.60;;
56927;SDS011;60850;52.502;13.426;2022-12-11T12:12:33;17.65;;;7.88;;
56927;SDS011;60850;52.502;13.426;2022-12-11T12:15:12;14.23;;;7.43;;
56927;SDS011;60850;52.502;13.426;2022-12-11T12:17:46;14.27;;;7.13;;
56927;SDS011;60850;52.502;13.426;2022-12-11T12:20:21;19.13;;;7.65;;
56927;SDS011;60850;52.502;13.426;2022-12-11T12:22:56;16.05;;;7.18;;
56927;SDS011;60850;52.502;13.426;2022-12-11T12:25:41;16.70;;;7.50;;
56927;SDS011;60850;52.502;13.426;2022-12-11T12:28:16;16.35;;;7.45;;
56927;SDS011;60850;52.502;13.426;2022-12-11T12:30:55;18.20;;;8.23;;
56927;SDS011;60850;52.502;13.426;2022-12-11T12:33:36;17.00;;;8.35;;
56927;SDS011;60850;52.502;13.426;2022-12-11T12:36:19;17.92;;;7.93;;
56927;SDS011;60850;52.502;13.426;2022-12-11T12:38:53;20.90;;;8.57;;
56927;SDS011;60850;52.502;13.426;2022-12-11T12:41:29;19.67;;;8.35;;
56927;SDS011;60850;52.502;13.426;2022-12-11T12:44:10;20.60;;;9.02;;
56927;SDS011;60850;52.502;13.426;2022-12-11T12:46:42;16.63;;;8.18;;
56927;SDS011;60850;52.502;13.426;2022-12-11T12:49:31;17.88;;;8.23;;
56927;SDS011;60850;52.502;13.426;2022-12-11T12:52:05;15.07;;;7.72;;
56927;SDS011;60850;52.502;13.426;2022-12-11T12:54:37;18.48;;;7.60;;
56927;SDS011;60850;52.502;13.426;2022-12-11T12:57:06;18.35;;;8.93;;
56927;SDS011;60850;52.502;13.426;2022-12-11T12:59:33;16.90;;;7.35;;
56927;SDS011;60850;52.502;13.426;2022-12-11T13:02:01;16.42;;;7.35;;
56927;SDS011;60850;52.502;13.426;2022-12-11T13:04:36;15.65;;;8.27;;
56927;SDS011;60850;52.502;13.426;2022-12-11T13:07:14;15.98;;;7.55;;
56927;SDS011;60850;52.502;13.426;2022-12-11T13:09:54;19.13;;;8.43;;
56927;SDS011;60850;52.502;13.426;2022-12-11T13:12:30;17.40;;;8.13;;
56927;SDS011;60850;52.502;13.426;2022-12-11T13:14:59;18.35;;;7.78;;
56927;SDS011;60850;52.502;13.426;2022-12-11T13:17:35;16.13;;;7.45;;
56927;SDS011;60850;52.502;13.426;2022-12-11T13:20:13;17.20;;;7.72;;
56927;SDS011;60850;52.502;13.426;2022-12-11T13:23:08;16.98;;;7.57;;
56927;SDS011;60850;52.502;13.426;2022-12-11T13:25:49;15.10;;;7.45;;
56927;SDS011;60850;52.502;13.426;2022-12-11T13:28:20;16.75;;;7.35;;
56927;SDS011;60850;52.502;13.426;2022-12-11T13:30:56;19.02;;;8.63;;
56927;SDS011;60850;52.502;13.426;2022-12-11T13:33:29;15.65;;;7.65;;
56927;SDS011;60850;52.502;13.426;2022-12-11T13:39:02;16.35;;;7.22;;
56927;SDS011;60850;52.502;13.426;2022-12-11T13:41:31;17.55;;;7.82;;
56927;SDS011;60850;52.502;13.426;2022-12-11T13:44:00;18.52;;;8.02;;
56927;SDS011;60850;52.502;13.426;2022-12-11T13:46:29;16.42;;;7.38;;
56927;SDS011;60850;52.502;13.426;2022-12-11T13:49:00;15.35;;;7.45;;
56927;SDS011;60850;52.502;13.426;2022-12-11T13:51:31;13.80;;;7.13;;
56927;SDS011;60850;52.502;13.426;2022-12-11T13:54:13;20.35;;;7.75;;
56927;SDS011;60850;52.502;13.426;2022-12-11T13:56:51;15.55;;;6.95;;
56927;SDS011;60850;52.502;13.426;2022-12-11T13:59:22;20.48;;;7.80;;
56927;SDS011;60850;52.502;13.426;2022-12-11T14:01:52;14.30;;;7.07;;
56927;SDS011;60850;52.502;13.426;2022-12-11T14:04:22;27.65;;;10.48;;
56927;SDS011;60850;52.502;13.426;2022-12-11T14:06:52;18.75;;;8.63;;
56927;SDS011;60850;52.502;13.426;2022-12-11T14:09:23;18.38;;;8.82;;
56927;SDS011;60850;52.502;13.426;2022-12-11T14:11:53;17.30;;;8.43;;
56927;SDS011;60850;52.502;13.426;2022-12-11T14:14:25;17.67;;;8.18;;
56927;SDS011;60850;52.502;13.426;2022-12-11T14:16:58;18.23;;;7.45;;
56927;SDS011;60850;52.502;13.426;2022-12-11T14:19:26;18.33;;;8.27;;
56927;SDS011;60850;52.502;13.426;2022-12-11T14:21:54;18.17;;;7.35;;
56927;SDS011;60850;52.502;13.426;2022-12-11T14:24:24;18.00;;;8.38;;
56927;SDS011;60850;52.502;13.426;2022-12-11T14:26:52;17.52;;;7.78;;
56927;SDS011;60850;52.502;13.426;2022-12-11T14:29:26;16.70;;;7.93;;
56927;SDS011;60850;52.502;13.426;2022-12-11T14:31:56;15.85;;;7.57;;
56927;SDS011;60850;52.502;13.426;2022-12-11T14:34:28;20.67;;;9.18;;
56927;SDS011;60850;52.502;13.426;2022-12-11T14:36:59;20.20;;;8.80;;
56927;SDS011;60850;52.502;13.426;2022-12-11T14:39:31;20.23;;;7.68;;
56927;SDS011;60850;52.502;13.426;2022-12-11T14:42:04;19.02;;;8.35;;
56927;SDS011;60850;52.502;13.426;2022-12-11T14:44:39;19.38;;;8.60;;
56927;SDS011;60850;52.502;13.426;2022-12-11T14:47:14;16.80;;;8.20;;
56927;SDS011;60850;52.502;13.426;2022-12-11T14:49:46;19.88;;;8.88;;